createdAt,value
2019-02-25T00:00:53.488Z,101469.59
2019-02-25T00:04:00.821Z,101469.34
2019-02-25T00:07:06.646Z,101461.71
2019-02-25T00:10:12.500Z,101456.17
2019-02-25T00:13:18.402Z,101456.53
2019-02-25T00:16:24.184Z,101461.63
2019-02-25T00:19:29.957Z,101466.61
2019-02-25T00:22:35.748Z,101459.41
2019-02-25T00:25:41.526Z,101459.64
2019-02-25T00:28:47.355Z,101461.43
2019-02-25T00:31:53.139Z,101458.92
2019-02-25T00:34:59.014Z,101458.26
2019-02-25T00:38:04.856Z,101458.46
2019-02-25T00:41:10.750Z,101450.54
2019-02-25T00:44:16.534Z,101446.21
2019-02-25T00:47:22.340Z,101446.31
2019-02-25T00:50:28.097Z,101444.52
2019-02-25T00:53:33.904Z,101434.97
2019-02-25T00:56:39.673Z,101435.20
2019-02-25T00:59:45.471Z,101433.17
2019-02-25T01:02:51.526Z,101428.07
2019-02-25T01:05:57.408Z,101425.39
2019-02-25T01:09:04.101Z,101435.73
2019-02-25T01:12:11.682Z,101435.66
2019-02-25T01:15:19.595Z,101438.34
2019-02-25T01:18:25.374Z,101437.01
2019-02-25T01:21:31.143Z,101434.34
2019-02-25T01:24:36.923Z,101432.48
2019-02-25T01:27:42.966Z,101427.58
2019-02-25T01:30:48.704Z,101425.81
2019-02-25T01:33:54.463Z,101420.36
2019-02-25T01:37:00.215Z,101420.36
2019-02-25T01:40:06.286Z,101421.11
2019-02-25T01:43:12.031Z,101420.98
2019-02-25T01:46:18.902Z,101417.50
2019-02-25T01:49:24.655Z,101423.16
2019-02-25T01:52:30.403Z,101416.99
2019-02-25T01:55:36.159Z,101418.28
2019-02-25T01:58:41.923Z,101419.22
2019-02-25T02:01:47.688Z,101420.73
2019-02-25T02:04:53.465Z,101418.85
2019-02-25T02:07:59.210Z,101418.09
2019-02-25T02:11:05.118Z,101416.91
2019-02-25T02:14:10.934Z,101416.34
2019-02-25T02:17:16.703Z,101412.97
2019-02-25T02:20:22.591Z,101418.45
2019-02-25T02:23:29.375Z,101416.89
2019-02-25T02:26:35.146Z,101416.75
2019-02-25T02:29:40.983Z,101422.05
2019-02-25T02:32:46.941Z,101415.65
2019-02-25T02:35:52.769Z,101416.94
2019-02-25T02:38:58.547Z,101416.17
2019-02-25T02:42:15.634Z,101420.06
2019-02-25T02:45:47.933Z,101413.89
2019-02-25T02:48:57.738Z,101413.63
2019-02-25T02:52:03.539Z,101415.77
2019-02-25T02:55:09.811Z,101408.42
2019-02-25T02:58:15.549Z,101408.20
2019-02-25T03:01:21.341Z,101400.39
2019-02-25T03:04:27.115Z,101399.42
2019-02-25T03:07:32.878Z,101404.66
2019-02-25T03:10:38.626Z,101404.89
2019-02-25T03:13:44.407Z,101405.85
2019-02-25T03:16:50.201Z,101409.56
2019-02-25T03:19:55.958Z,101408.06
2019-02-25T03:23:01.717Z,101406.66
2019-02-25T03:26:07.497Z,101410.23
2019-02-25T03:29:13.294Z,101410.70
2019-02-25T03:32:19.067Z,101405.48
2019-02-25T03:35:24.821Z,101408.42
2019-02-25T03:38:30.633Z,101407.17
2019-02-25T03:41:37.538Z,101413.88
2019-02-25T03:44:43.331Z,101404.43
2019-02-25T03:47:49.333Z,101413.22
2019-02-25T03:50:55.100Z,101413.56
2019-02-25T03:54:01.887Z,101411.17
2019-02-25T03:57:07.667Z,101409.58
2019-02-25T04:00:19.855Z,101410.73
2019-02-25T04:03:25.971Z,101411.98
2019-02-25T04:06:32.079Z,101411.74
2019-02-25T04:09:38.134Z,101412.11
2019-02-25T04:12:44.128Z,101411.08
2019-02-25T04:15:50.079Z,101414.66
2019-02-25T04:18:56.043Z,101419.63
2019-02-25T04:22:01.901Z,101416.67
2019-02-25T04:25:07.824Z,101415.86
2019-02-25T04:28:13.601Z,101420.00
2019-02-25T04:31:20.417Z,101417.66
2019-02-25T04:34:26.204Z,101413.92
2019-02-25T04:37:31.964Z,101416.31
2019-02-25T04:40:37.751Z,101418.48
2019-02-25T04:43:43.496Z,101427.73
2019-02-25T04:46:49.297Z,101424.25
2019-02-25T04:49:55.074Z,101430.16
2019-02-25T04:53:00.839Z,101428.55
2019-02-25T04:56:07.700Z,101426.06
2019-02-25T04:59:13.490Z,101429.34
2019-02-25T05:02:19.347Z,101430.36
2019-02-25T05:05:25.122Z,101430.24
2019-02-25T05:08:30.959Z,101435.44
2019-02-25T05:11:37.444Z,101425.17
2019-02-25T05:14:43.219Z,101438.64
2019-02-25T05:17:49.121Z,101429.48
2019-02-25T05:20:54.896Z,101438.58
2019-02-25T05:24:00.642Z,101443.11
2019-02-25T05:27:06.587Z,101438.17
2019-02-25T05:30:12.606Z,101445.20
2019-02-25T05:33:18.381Z,101436.91
2019-02-25T05:36:24.171Z,101440.44
2019-02-25T05:39:29.949Z,101434.26
2019-02-25T05:42:35.720Z,101443.78
2019-02-25T05:45:41.519Z,101442.16
2019-02-25T05:48:47.405Z,101439.48
2019-02-25T05:51:53.202Z,101444.44
2019-02-25T05:54:58.989Z,101451.36
2019-02-25T05:58:04.860Z,101446.50
2019-02-25T06:01:10.636Z,101440.73
2019-02-25T06:04:16.420Z,101444.22
2019-02-25T06:07:22.189Z,101434.16
2019-02-25T06:10:28.060Z,101441.91
2019-02-25T06:13:33.873Z,101443.72
2019-02-25T06:16:39.654Z,101432.00
2019-02-25T06:19:45.460Z,101430.53
2019-02-25T06:22:51.291Z,101432.38
2019-02-25T06:25:57.095Z,101430.59
2019-02-25T06:29:02.832Z,101431.50
2019-02-25T06:32:08.673Z,101432.45
2019-02-25T06:35:14.996Z,101447.37
2019-02-25T06:38:20.756Z,101436.00
2019-02-25T06:41:26.518Z,101434.64
2019-02-25T06:44:32.274Z,101435.30
2019-02-25T06:47:38.052Z,101439.58
2019-02-25T06:50:44.006Z,101434.84
2019-02-25T06:53:49.769Z,101434.71
2019-02-25T06:56:56.524Z,101427.65
2019-02-25T07:00:02.465Z,101428.59
2019-02-25T07:03:08.470Z,101426.36
2019-02-25T07:06:29.359Z,101421.97
2019-02-25T07:09:49.173Z,101419.16
2019-02-25T07:13:04.069Z,101415.02
2019-02-25T07:16:34.749Z,101424.80
2019-02-25T07:19:47.217Z,101418.90
2019-02-25T07:23:14.909Z,101415.75
2019-02-25T07:26:45.754Z,101411.78
2019-02-25T07:30:13.395Z,101411.27
2019-02-25T07:33:43.921Z,101413.55
2019-02-25T07:37:08.524Z,101404.52
2019-02-25T07:40:35.907Z,101407.16
2019-02-25T07:44:06.339Z,101409.20
2019-02-25T07:47:30.921Z,101415.95
2019-02-25T07:50:55.530Z,101416.36
2019-02-25T07:54:21.853Z,101409.75
2019-02-25T07:57:46.474Z,101418.93
2019-02-25T08:01:03.660Z,101420.16
2019-02-25T08:04:34.172Z,101429.39
2019-02-25T08:08:10.977Z,101432.93
2019-02-25T08:11:29.462Z,101430.58
2019-02-25T08:15:09.416Z,101426.09
2019-02-25T08:18:33.515Z,101424.31
2019-02-25T08:22:16.576Z,101424.06
2019-02-25T08:25:34.780Z,101424.17
2019-02-25T08:29:08.651Z,101418.23
2019-02-25T08:32:39.555Z,101418.23
2019-02-25T08:36:47.790Z,101421.26
2019-02-25T08:40:27.483Z,101415.72
2019-02-25T08:43:50.763Z,101414.13
2019-02-25T08:47:02.192Z,101415.89
2019-02-25T08:50:11.754Z,101409.63
2019-02-25T08:53:17.670Z,101411.52
2019-02-25T08:56:23.644Z,101416.14
2019-02-25T08:59:29.547Z,101412.72
2019-02-25T09:02:35.485Z,101405.86
2019-02-25T09:05:41.300Z,101403.63
2019-02-25T09:08:47.200Z,101407.70
2019-02-25T09:11:52.977Z,101404.44
2019-02-25T09:14:58.776Z,101405.97
2019-02-25T09:18:02.490Z,101404.44
2019-02-25T09:21:08.387Z,101405.97
2019-02-25T09:24:15.113Z,101409.56
2019-02-25T09:27:20.978Z,101406.28
2019-02-25T09:30:26.731Z,101424.46
2019-02-25T09:33:32.598Z,101419.04
2019-02-25T09:36:38.377Z,101420.77
2019-02-25T09:39:44.191Z,101424.89
2019-02-25T09:42:51.629Z,101416.20
2019-02-25T09:45:57.387Z,101416.75
2019-02-25T09:49:04.180Z,101415.02
2019-02-25T09:52:09.938Z,101408.80
2019-02-25T09:55:15.942Z,101406.48
2019-02-25T09:58:21.781Z,101404.11
2019-02-25T10:01:27.657Z,101402.95
2019-02-25T10:04:33.425Z,101397.91
2019-02-25T10:07:39.307Z,101388.12
2019-02-25T10:10:45.064Z,101385.92
2019-02-25T10:13:51.902Z,101385.17
2019-02-25T10:16:57.782Z,101387.21
2019-02-25T10:20:03.674Z,101382.56
2019-02-25T10:23:09.594Z,101369.42
2019-02-25T10:26:15.361Z,101364.19
2019-02-25T10:29:21.219Z,101368.84
2019-02-25T10:32:27.948Z,101369.20
2019-02-25T10:35:34.560Z,101361.48
2019-02-25T10:38:40.447Z,101363.60
2019-02-25T10:41:46.211Z,101360.47
2019-02-25T10:44:52.014Z,101361.16
2019-02-25T10:47:58.833Z,101365.47
2019-02-25T10:51:06.917Z,101355.92
2019-02-25T10:54:12.448Z,101359.00
2019-02-25T10:57:21.966Z,101355.04
2019-02-25T11:00:30.808Z,101353.76
2019-02-25T11:03:36.596Z,101346.63
2019-02-25T11:06:42.588Z,101342.07
2019-02-25T11:09:58.932Z,101337.92
2019-02-25T11:13:05.282Z,101339.66
2019-02-25T11:16:11.974Z,101324.67
2019-02-25T11:19:18.720Z,101320.41
2019-02-25T11:22:24.510Z,101314.52
2019-02-25T11:25:30.297Z,101314.20
2019-02-25T11:28:38.470Z,101316.28
2019-02-25T11:31:45.144Z,101302.52
2019-02-25T11:34:50.986Z,101296.05
2019-02-25T11:37:59.064Z,101290.86
2019-02-25T11:41:06.582Z,101284.39
2019-02-25T11:44:11.935Z,101275.35
2019-02-25T11:47:17.715Z,101266.98
2019-02-25T11:50:23.597Z,101255.16
2019-02-25T11:53:29.465Z,101249.56
2019-02-25T11:56:35.542Z,101245.56
2019-02-25T11:59:41.282Z,101240.03
2019-02-25T12:02:47.343Z,101235.72
2019-02-25T12:05:53.237Z,101233.16
2019-02-25T12:08:59.019Z,101226.87
2019-02-25T12:12:04.902Z,101219.17
2019-02-25T12:15:12.239Z,101212.87
2019-02-25T12:18:17.991Z,101204.64
2019-02-25T12:21:23.755Z,101197.13
2019-02-25T12:24:29.510Z,101194.83
2019-02-25T12:27:35.289Z,101185.13
2019-02-25T12:30:41.075Z,101179.33
2019-02-25T12:33:46.920Z,101177.68
2019-02-25T12:36:52.809Z,101177.44
2019-02-25T12:39:58.616Z,101177.88
2019-02-25T12:43:04.501Z,101172.66
2019-02-25T12:46:10.267Z,101170.83
2019-02-25T12:49:16.024Z,101173.36
2019-02-25T12:52:21.797Z,101175.36
2019-02-25T12:55:27.711Z,101177.66
2019-02-25T12:58:33.437Z,101176.50
2019-02-25T13:01:39.207Z,101181.19
2019-02-25T13:04:45.015Z,101178.25
2019-02-25T13:07:51.012Z,101182.84
2019-02-25T13:10:56.795Z,101178.39
2019-02-25T13:14:02.575Z,101171.41
2019-02-25T13:17:08.401Z,101175.80
2019-02-25T13:20:15.407Z,101175.53
2019-02-25T13:23:21.235Z,101176.88
2019-02-25T13:26:28.830Z,101162.66
2019-02-25T13:29:34.710Z,101162.64
2019-02-25T13:32:40.480Z,101156.67
2019-02-25T13:35:46.275Z,101145.73
2019-02-25T13:38:52.234Z,101135.48
2019-02-25T13:41:58.029Z,101134.30
2019-02-25T13:45:03.958Z,101132.18
2019-02-25T13:48:10.042Z,101123.41
2019-02-25T13:51:16.010Z,101122.45
2019-02-25T13:54:21.830Z,101120.34
2019-02-25T13:57:27.789Z,101118.93
2019-02-25T14:00:33.682Z,101115.19
2019-02-25T14:03:39.709Z,101108.59
2019-02-25T14:06:45.812Z,101106.76
2019-02-25T14:09:51.612Z,101101.81
2019-02-25T14:12:57.403Z,101086.88
2019-02-25T14:16:03.295Z,101080.23
2019-02-25T14:19:09.377Z,101072.89
2019-02-25T14:22:16.559Z,101066.81
2019-02-25T14:25:24.190Z,101070.35
2019-02-25T14:28:30.358Z,101068.09
2019-02-25T14:31:37.446Z,101060.02
2019-02-25T14:34:44.434Z,101062.96
2019-02-25T14:37:50.766Z,101060.84
2019-02-25T14:40:56.852Z,101049.59
2019-02-25T14:44:02.793Z,101039.27
2019-02-25T14:47:19.526Z,101046.37
2019-02-25T14:50:17.671Z,101046.25
2019-02-25T14:53:23.461Z,101040.66
2019-02-25T14:56:29.328Z,101035.22
2019-02-25T14:59:35.093Z,101031.42
2019-02-25T15:02:43.517Z,101032.91
2019-02-25T15:05:50.146Z,101030.76
2019-02-25T15:08:57.524Z,101017.78
2019-02-25T15:12:06.409Z,101025.73
2019-02-25T15:15:13.032Z,101023.95
2019-02-25T15:18:20.047Z,101024.80
2019-02-25T15:21:26.692Z,101027.59
2019-02-25T15:24:32.485Z,101027.42
2019-02-25T15:27:38.364Z,101026.30
2019-02-25T15:30:44.485Z,101029.39
2019-02-25T15:33:50.982Z,101021.66
2019-02-25T15:36:58.515Z,101020.36
2019-02-25T15:40:06.001Z,101019.02
2019-02-25T15:43:15.858Z,101021.55
2019-02-25T15:46:22.168Z,101006.59
2019-02-25T15:49:28.412Z,101004.94
2019-02-25T15:52:39.861Z,101002.61
2019-02-25T15:55:42.906Z,100997.18
2019-02-25T15:58:49.832Z,100993.77
2019-02-25T16:01:55.571Z,100992.33
2019-02-25T16:05:05.786Z,100991.97
2019-02-25T16:08:16.182Z,100985.69
2019-02-25T16:11:25.315Z,100985.73
2019-02-25T16:14:29.793Z,100981.78
2019-02-25T16:17:37.685Z,100981.00
2019-02-25T16:20:45.807Z,100977.38
2019-02-25T16:23:50.935Z,100974.48
2019-02-25T16:26:58.371Z,100970.77
2019-02-25T16:30:05.721Z,100971.70
2019-02-25T16:33:14.360Z,100958.19
2019-02-25T16:36:21.772Z,100960.13
2019-02-25T16:39:27.911Z,100965.38
2019-02-25T16:42:34.733Z,100964.08
2019-02-25T16:45:44.031Z,100967.77
2019-02-25T16:48:51.098Z,100968.39
2019-02-25T16:51:59.371Z,100978.03
2019-02-25T16:55:05.256Z,100974.07
2019-02-25T16:58:13.393Z,100979.13
2019-02-25T17:01:19.377Z,100980.63
2019-02-25T17:04:27.181Z,100978.88
2019-02-25T17:07:33.354Z,100981.64
2019-02-25T17:10:39.137Z,100991.66
2019-02-25T17:13:45.120Z,100998.86
2019-02-25T17:16:51.012Z,100995.67
2019-02-25T17:19:57.079Z,100995.98
2019-02-25T17:23:02.927Z,100992.36
2019-02-25T17:26:10.614Z,100994.85
2019-02-25T17:29:16.368Z,101006.43
2019-02-25T17:32:23.331Z,100999.33
2019-02-25T17:35:30.880Z,100994.30
2019-02-25T17:38:36.847Z,100988.28
2019-02-25T17:41:44.804Z,100977.73
2019-02-25T17:44:53.325Z,100968.29
2019-02-25T17:47:58.800Z,100974.28
2019-02-25T17:51:06.074Z,100964.96
2019-02-25T17:54:15.183Z,100968.19
2019-02-25T17:57:22.012Z,100957.09
2019-02-25T18:00:47.455Z,100960.07
2019-02-25T18:03:53.390Z,100948.27
2019-02-25T18:06:59.399Z,100944.09
2019-02-25T18:10:07.748Z,100936.94
2019-02-25T18:13:14.283Z,100932.50
2019-02-25T18:16:20.244Z,100919.61
2019-02-25T18:19:27.141Z,100907.98
2019-02-25T18:22:33.294Z,100891.94
2019-02-25T18:25:39.624Z,100883.19
2019-02-25T18:28:46.657Z,100869.71
2019-02-25T18:31:53.659Z,100871.37
2019-02-25T18:35:00.472Z,100873.75
2019-02-25T18:38:09.283Z,100865.77
2019-02-25T18:41:14.533Z,100865.17
2019-02-25T18:44:20.407Z,100871.36
2019-02-25T18:47:27.311Z,100871.76
2019-02-25T18:50:34.056Z,100867.70
2019-02-25T18:53:44.698Z,100869.82
2019-02-25T18:56:52.588Z,100861.89
2019-02-25T18:59:59.432Z,100856.78
2019-02-25T19:03:08.422Z,100854.81
2019-02-25T19:06:14.932Z,100858.83
2019-02-25T19:09:25.645Z,100856.22
2019-02-25T19:12:32.924Z,100845.83
2019-02-25T19:15:38.979Z,100846.78
2019-02-25T19:18:47.214Z,100847.53
2019-02-25T19:21:54.259Z,100836.30
2019-02-25T19:25:00.631Z,100823.36
2019-02-25T19:28:07.926Z,100820.70
2019-02-25T19:31:14.086Z,100812.31
2019-02-25T19:34:20.209Z,100807.77
2019-02-25T19:37:29.117Z,100801.39
2019-02-25T19:40:34.159Z,100785.86
2019-02-25T19:43:40.029Z,100790.79
2019-02-25T19:46:48.045Z,100780.28
2019-02-25T19:49:53.364Z,100780.73
2019-02-25T19:53:02.487Z,100777.39
2019-02-25T19:56:07.755Z,100770.89
2019-02-25T19:59:13.561Z,100765.73
2019-02-25T20:02:19.442Z,100758.83
2019-02-25T20:05:25.893Z,100754.86
2019-02-25T20:08:32.185Z,100755.64
2019-02-25T20:11:38.156Z,100749.25
2019-02-25T20:14:46.566Z,100750.44
2019-02-25T20:17:53.326Z,100746.69
2019-02-25T20:20:59.836Z,100746.87
2019-02-25T20:24:07.714Z,100751.53
2019-02-25T20:27:14.235Z,100733.66
2019-02-25T20:30:21.887Z,100734.89
2019-02-25T20:33:31.856Z,100726.06
2019-02-25T20:36:35.183Z,100724.86
2019-02-25T20:39:42.859Z,100724.08
2019-02-25T20:42:51.244Z,100713.39
2019-02-25T20:45:59.304Z,100719.84
2019-02-25T20:49:04.838Z,100716.74
2019-02-25T20:52:11.776Z,100717.56
2019-02-25T20:55:18.378Z,100718.27
2019-02-25T20:58:24.374Z,100713.45
2019-02-25T21:01:30.274Z,100713.84
2019-02-25T21:04:36.839Z,100711.97
2019-02-25T21:07:43.762Z,100713.98
2019-02-25T21:10:49.519Z,100706.16
2019-02-25T21:13:55.441Z,100703.06
2019-02-25T21:17:03.094Z,100697.87
2019-02-25T21:20:11.354Z,100688.32
2019-02-25T21:23:17.305Z,100683.37
2019-02-25T21:26:25.422Z,100673.43
2019-02-25T21:29:31.856Z,100662.02
2019-02-25T21:32:38.248Z,100661.22
2019-02-25T21:35:44.230Z,100649.59
2019-02-25T21:38:51.531Z,100649.59
2019-02-25T21:41:57.507Z,100636.89
2019-02-25T21:45:03.301Z,100638.54
2019-02-25T21:48:09.299Z,100631.62
2019-02-25T21:51:15.105Z,100625.62
2019-02-25T21:54:21.127Z,100629.07
2019-02-25T21:57:29.144Z,100619.58
2019-02-25T22:00:37.417Z,100625.43
2019-02-25T22:03:45.926Z,100615.20
2019-02-25T22:06:51.219Z,100630.13
2019-02-25T22:09:56.948Z,100621.48
2019-02-25T22:13:06.682Z,100615.56
2019-02-25T22:16:10.311Z,100611.06
2019-02-25T22:19:16.873Z,100624.06
2019-02-25T22:22:26.197Z,100619.36
2019-02-25T22:25:31.148Z,100616.78
2019-02-25T22:28:38.876Z,100616.23
2019-02-25T22:31:44.479Z,100616.55
2019-02-25T22:34:50.366Z,100605.75
2019-02-25T22:37:58.165Z,100605.46
2019-02-25T22:41:04.841Z,100603.33
2019-02-25T22:44:10.709Z,100597.03
2019-02-25T22:47:18.272Z,100602.27
2019-02-25T22:50:23.991Z,100601.30
2019-02-25T22:53:29.792Z,100601.88
2019-02-25T22:56:35.609Z,100603.64
2019-02-25T22:59:41.372Z,100606.22
2019-02-25T23:02:49.707Z,100598.78
2019-02-25T23:05:55.317Z,100597.58
2019-02-25T23:09:01.118Z,100585.20
2019-02-25T23:12:08.443Z,100581.02
2019-02-25T23:15:14.693Z,100578.88
2019-02-25T23:18:24.488Z,100570.38
2019-02-25T23:21:29.320Z,100566.28
2019-02-25T23:24:37.408Z,100567.44
2019-02-25T23:27:42.953Z,100563.11
2019-02-25T23:30:48.906Z,100557.02
2019-02-25T23:33:54.719Z,100553.06
2019-02-25T23:37:00.503Z,100566.66
2019-02-25T23:40:07.788Z,100572.81
2019-02-25T23:43:16.634Z,100588.93
2019-02-25T23:46:25.235Z,100588.09
2019-02-25T23:49:29.366Z,100592.40
2019-02-25T23:52:35.875Z,100599.24
2019-02-25T23:55:45.083Z,100597.27
2019-02-25T23:58:51.767Z,100590.73
